Kingston Norman Rogers Airport
CYGK : now visible

Airfield :











YOU CAN JOIN US ON...

 
LOGIN :

Register | Disclaimer

   EN    FR    IT 

 









Legend :    VFR   Marginal VFR   IFR   Intensive IFR   Very Intensive IFR
Visi :
Ceiling :
>= 8 km
>= 3000ft
5 to 8 km
1000 to 3000 ft
1500m to 5 km
500 to 1000 ft
800 to 1500m
200 to 500 ft
< 800m
< 200 ft
Symbols :   Thunderstorms  Fog  Heavy snow  Heavy precipitations  Wind > 20 kt






- Airport Elevation : 305 ft
- IATA code : YGK


CYGK - Kingston Norman Rogers

CURRENT METAR :
  • 141700Z 21019G26KT 1SM -SN BLSN OVC011 00/M01 A3016 RMK SN4SC4 /S02/ SLP219

EXPIRED METARs :
  • 141600Z 20022G29KT 1SM -SN BLSN BKN010 OVC020 M00/M02 A3018 RMK SN4SC3SC1 VIS VRB 3/4 - 11/4 SLP227

TAF AMD TAF CYGK
Valid from the 14 at 17:00 until the 15 at 01:00 UTC


141717Z 1417/1501 21018G28KT 6SM -SHSN SCT012 OVC025
TEMPO 1417/1421 1SM -SHSN BLSN BKN008 OVC020
FM142100 23015G25KT P6SM OVC015
TEMPO 1421/1501 21/2SM -SHRASN BR RMK NXT FCST BY 142000Z



MET'MAP, your aeronautical weather chart ! - Copyright ORBIFLY December 2007 - Disclaimer

ORBIFLY MET'MAP TEAM :

Programming & Development : Alexandra Zaïnal
Concept & Development : Baudouin d'Aumeries
Co-Development & Prog : Marc-Olivier Méhu
Technical & hardware support : Manuel Goepfert

Contact : metmap@orbifly.com




SOURCES & CREDITS :

   NOAA       Earth
Advisory